createdAt,value
2022-10-07T00:00:58.893Z,102872.19
2022-10-07T00:03:27.245Z,102869.56
2022-10-07T00:06:05.226Z,102871.38
2022-10-07T00:08:32.829Z,102874.19
2022-10-07T00:11:05.080Z,102866.59
2022-10-07T00:13:32.427Z,102870.22
2022-10-07T00:16:10.782Z,102864.22
2022-10-07T00:18:39.468Z,102857.22
2022-10-07T00:21:08.573Z,102854.63
2022-10-07T00:23:36.051Z,102857.41
2022-10-07T00:26:05.059Z,102848.84
2022-10-07T00:28:32.265Z,102846.22
2022-10-07T00:31:01.002Z,102840.25
2022-10-07T00:33:31.932Z,102852.22
2022-10-07T00:35:58.971Z,102846.22
2022-10-07T00:38:25.710Z,102844.41
2022-10-07T00:40:52.791Z,102848.63
2022-10-07T00:43:26.459Z,102844.41
2022-10-07T00:45:59.153Z,102831.41
2022-10-07T00:48:30.728Z,102829.41
2022-10-07T00:51:00.824Z,102820.59
2022-10-07T00:53:31.709Z,102830.19
2022-10-07T00:56:03.056Z,102829.97
2022-10-07T00:58:33.743Z,102822.19
2022-10-07T01:01:00.894Z,102813.38
2022-10-07T01:03:28.789Z,102817.78
2022-10-07T01:05:55.706Z,102816.97
2022-10-07T01:08:23.353Z,102811.34
2022-10-07T01:11:28.646Z,102800.94
2022-10-07T01:14:19.769Z,102799.34
2022-10-07T01:17:09.214Z,102782.38
2022-10-07T01:19:43.159Z,102781.38
2022-10-07T01:22:28.372Z,102788.38
2022-10-07T01:25:03.975Z,102781.59
2022-10-07T01:27:32.173Z,102779.97
2022-10-07T01:30:07.305Z,102771.19
2022-10-07T01:32:42.836Z,102776.59
2022-10-07T01:35:18.473Z,102769.59
2022-10-07T01:37:49.443Z,102773.22
2022-10-07T01:40:22.053Z,102763.81
2022-10-07T01:42:52.051Z,102765.81
2022-10-07T01:45:21.826Z,102762.66
2022-10-07T01:47:49.276Z,102761.06
2022-10-07T01:50:17.610Z,102756.66
2022-10-07T01:53:00.642Z,102746.91
2022-10-07T01:55:28.645Z,102754.72
2022-10-07T01:58:06.450Z,102743.72
2022-10-07T02:00:41.514Z,102742.13
2022-10-07T02:03:39.043Z,102732.75
2022-10-07T02:06:05.827Z,102731.94
2022-10-07T02:08:49.052Z,102728.53
2022-10-07T02:11:17.505Z,102717.56
2022-10-07T02:13:56.123Z,102706.00
2022-10-07T02:16:29.553Z,102703.63
2022-10-07T02:18:59.087Z,102701.03
2022-10-07T02:21:30.219Z,102694.03
2022-10-07T02:23:59.411Z,102695.63
2022-10-07T02:26:29.477Z,102699.81
2022-10-07T02:28:58.505Z,102687.81
2022-10-07T02:31:30.543Z,102689.41
2022-10-07T02:34:00.704Z,102697.22
2022-10-07T02:36:35.093Z,102680.00
2022-10-07T02:39:02.762Z,102673.81
2022-10-07T02:41:47.691Z,102670.41
2022-10-07T02:44:39.256Z,102667.81
2022-10-07T02:47:14.304Z,102666.81
2022-10-07T02:49:43.842Z,102664.00
2022-10-07T02:52:19.255Z,102667.19
2022-10-07T02:54:51.639Z,102663.34
2022-10-07T02:57:21.231Z,102650.34
2022-10-07T02:59:50.455Z,102657.94
2022-10-07T03:02:23.844Z,102651.69
2022-10-07T03:04:50.632Z,102655.66
2022-10-07T03:07:17.706Z,102642.66
2022-10-07T03:09:44.523Z,102645.84
2022-10-07T03:12:11.385Z,102654.44
2022-10-07T03:14:38.182Z,102649.25
2022-10-07T03:17:04.982Z,102641.22
2022-10-07T03:19:31.800Z,102647.00
2022-10-07T03:21:58.538Z,102639.75
2022-10-07T03:24:25.291Z,102633.78
2022-10-07T03:26:52.165Z,102625.19
2022-10-07T03:29:19.767Z,102623.16
2022-10-07T03:31:46.521Z,102621.34
2022-10-07T03:34:13.216Z,102621.34
2022-10-07T03:36:39.985Z,102623.72
2022-10-07T03:39:06.732Z,102621.91
2022-10-07T03:41:33.479Z,102624.09
2022-10-07T03:44:00.233Z,102612.34
2022-10-07T03:46:27.054Z,102613.13
2022-10-07T03:48:53.911Z,102616.72
2022-10-07T03:51:20.760Z,102614.94
2022-10-07T03:53:48.396Z,102616.72
2022-10-07T03:56:15.149Z,102616.72
2022-10-07T03:58:41.866Z,102613.34
2022-10-07T04:01:11.250Z,102607.34
2022-10-07T04:03:38.064Z,102611.53
2022-10-07T04:06:05.019Z,102610.94
2022-10-07T04:08:33.032Z,102605.75
2022-10-07T04:11:01.303Z,102609.38
2022-10-07T04:13:29.053Z,102616.16
2022-10-07T04:15:56.128Z,102598.97
2022-10-07T04:18:23.819Z,102604.16
2022-10-07T04:20:50.537Z,102601.56
2022-10-07T04:23:17.405Z,102593.78
2022-10-07T04:25:45.574Z,102605.75
2022-10-07T04:28:21.156Z,102604.16
2022-10-07T04:30:51.695Z,102584.94
2022-10-07T04:33:19.989Z,102586.97
2022-10-07T04:35:47.438Z,102592.94
2022-10-07T04:38:18.350Z,102591.38
2022-10-07T04:40:47.956Z,102589.78
2022-10-07T04:43:20.197Z,102596.00
2022-10-07T04:45:48.887Z,102592.63
2022-10-07T04:48:18.760Z,102591.81
2022-10-07T04:50:46.135Z,102590.22
2022-10-07T04:53:14.874Z,102603.44
2022-10-07T04:55:44.414Z,102583.88
2022-10-07T04:58:11.242Z,102589.09
2022-10-07T05:00:52.465Z,102583.53
2022-10-07T05:03:21.279Z,102574.16
2022-10-07T05:05:50.615Z,102568.13
2022-10-07T05:08:19.359Z,102568.38
2022-10-07T05:10:47.090Z,102573.56
2022-10-07T05:13:16.973Z,102576.19
2022-10-07T05:15:52.449Z,102575.38
2022-10-07T05:18:20.737Z,102568.38
2022-10-07T05:20:48.897Z,102568.38
2022-10-07T05:23:17.397Z,102563.19
2022-10-07T05:25:44.531Z,102571.75
2022-10-07T05:28:12.265Z,102567.56
2022-10-07T05:30:39.758Z,102562.16
2022-10-07T05:33:07.376Z,102561.16
2022-10-07T05:35:34.420Z,102551.53
2022-10-07T05:38:01.523Z,102557.53
2022-10-07T05:40:28.686Z,102555.50
2022-10-07T05:42:55.812Z,102556.28
2022-10-07T05:45:22.592Z,102548.28
2022-10-07T05:47:49.415Z,102558.47
2022-10-07T05:50:16.547Z,102549.63
2022-10-07T05:52:45.363Z,102546.81
2022-10-07T05:55:12.550Z,102550.56
2022-10-07T05:57:40.166Z,102549.91
2022-10-07T06:00:08.130Z,102536.09
2022-10-07T06:02:35.091Z,102535.66
2022-10-07T06:05:02.018Z,102538.63
2022-10-07T06:07:29.750Z,102531.97
2022-10-07T06:10:15.004Z,102536.28
2022-10-07T06:13:00.510Z,102537.19
2022-10-07T06:15:27.453Z,102539.69
2022-10-07T06:17:54.336Z,102538.81
2022-10-07T06:20:21.126Z,102531.91
2022-10-07T06:22:48.027Z,102537.78
2022-10-07T06:25:15.019Z,102545.72
2022-10-07T06:27:41.932Z,102532.81
2022-10-07T06:30:09.264Z,102529.56
2022-10-07T06:32:36.221Z,102532.25
2022-10-07T06:35:03.053Z,102535.78
2022-10-07T06:37:32.004Z,102536.22
2022-10-07T06:39:59.830Z,102543.47
2022-10-07T06:42:26.923Z,102538.94
2022-10-07T06:44:54.072Z,102539.63
2022-10-07T06:47:21.704Z,102538.72
2022-10-07T06:49:48.825Z,102538.63
2022-10-07T06:52:16.016Z,102538.47
2022-10-07T06:54:43.042Z,102533.38
2022-10-07T06:57:26.723Z,102539.47
2022-10-07T06:59:56.992Z,102539.03
2022-10-07T07:02:26.027Z,102539.34
2022-10-07T07:04:57.565Z,102538.66
2022-10-07T07:07:25.267Z,102543.38
2022-10-07T07:09:52.474Z,102546.34
2022-10-07T07:12:19.388Z,102538.97
2022-10-07T07:14:46.367Z,102535.97
2022-10-07T07:17:13.277Z,102544.75
2022-10-07T07:19:39.990Z,102540.75
2022-10-07T07:22:08.274Z,102540.38
2022-10-07T07:24:35.448Z,102534.16
2022-10-07T07:27:02.299Z,102533.69
2022-10-07T07:29:29.151Z,102522.91
2022-10-07T07:31:55.953Z,102531.47
2022-10-07T07:34:22.899Z,102530.38
2022-10-07T07:36:53.908Z,102531.69
2022-10-07T07:39:21.103Z,102527.97
2022-10-07T07:41:48.506Z,102530.56
2022-10-07T07:44:17.860Z,102521.34
2022-10-07T07:46:56.911Z,102530.13
2022-10-07T07:49:24.672Z,102528.47
2022-10-07T07:51:51.693Z,102520.97
2022-10-07T07:54:19.101Z,102515.00
2022-10-07T07:56:46.096Z,102519.25
2022-10-07T07:59:12.986Z,102516.47
2022-10-07T08:01:39.989Z,102516.28
2022-10-07T08:04:07.537Z,102511.38
2022-10-07T08:06:35.040Z,102512.16
2022-10-07T08:09:01.966Z,102512.44
2022-10-07T08:11:29.355Z,102506.47
2022-10-07T08:13:56.645Z,102511.22
2022-10-07T08:16:26.053Z,102501.03
2022-10-07T08:18:55.550Z,102502.94
2022-10-07T08:21:26.930Z,102501.63
2022-10-07T08:23:57.697Z,102498.03
2022-10-07T08:26:31.505Z,102492.59
2022-10-07T08:28:59.998Z,102483.81
2022-10-07T08:31:28.691Z,102496.03
2022-10-07T08:33:58.164Z,102485.16
2022-10-07T08:36:26.935Z,102500.44
2022-10-07T08:38:53.959Z,102490.75
2022-10-07T08:41:39.222Z,102494.91
2022-10-07T08:44:19.395Z,102488.84
2022-10-07T08:47:00.921Z,102493.88
2022-10-07T08:49:47.230Z,102484.00
2022-10-07T08:52:32.895Z,102493.22
2022-10-07T08:55:01.751Z,102487.47
2022-10-07T08:58:05.652Z,102485.97
2022-10-07T09:00:50.378Z,102488.09
2022-10-07T09:03:26.480Z,102472.91
2022-10-07T09:05:55.934Z,102471.34
2022-10-07T09:08:37.756Z,102472.16
2022-10-07T09:11:18.457Z,102478.25
2022-10-07T09:14:24.025Z,102470.38
2022-10-07T09:16:52.332Z,102479.81
2022-10-07T09:19:42.143Z,102471.41
2022-10-07T09:22:21.630Z,102470.63
2022-10-07T09:24:50.015Z,102472.47
2022-10-07T09:27:22.255Z,102469.34
2022-10-07T09:29:51.737Z,102464.09
2022-10-07T09:32:20.178Z,102459.16
2022-10-07T09:34:47.849Z,102452.63
2022-10-07T09:37:23.601Z,102455.22
2022-10-07T09:39:52.536Z,102461.31
2022-10-07T09:42:35.599Z,102452.59
2022-10-07T09:45:18.207Z,102455.16
2022-10-07T09:47:52.749Z,102444.28
2022-10-07T09:50:33.647Z,102452.38
2022-10-07T09:53:02.208Z,102436.03
2022-10-07T09:55:42.056Z,102429.69
2022-10-07T09:58:30.194Z,102432.59
2022-10-07T10:01:02.110Z,102429.97
2022-10-07T10:03:31.599Z,102420.72
2022-10-07T10:06:01.690Z,102429.38
2022-10-07T10:08:40.409Z,102425.13
2022-10-07T10:11:28.578Z,102419.75
2022-10-07T10:13:55.855Z,102414.59
2022-10-07T10:16:26.125Z,102405.47
2022-10-07T10:18:59.004Z,102400.66
2022-10-07T10:21:30.317Z,102403.19
2022-10-07T10:24:00.741Z,102404.66
2022-10-07T10:26:36.782Z,102394.09
2022-10-07T10:29:15.590Z,102395.34
2022-10-07T10:31:45.279Z,102397.94
2022-10-07T10:34:17.837Z,102400.91
2022-10-07T10:36:53.516Z,102400.19
2022-10-07T10:39:23.378Z,102399.50
2022-10-07T10:41:54.843Z,102391.19
2022-10-07T10:44:34.193Z,102391.06
2022-10-07T10:47:07.211Z,102391.72
2022-10-07T10:50:09.332Z,102395.22
2022-10-07T10:53:16.703Z,102389.84
2022-10-07T10:56:07.584Z,102373.19
2022-10-07T10:58:53.126Z,102365.47
2022-10-07T11:02:00.943Z,102355.25
2022-10-07T11:05:03.394Z,102364.25
2022-10-07T11:07:36.778Z,102362.25
2022-10-07T11:10:19.521Z,102359.38
2022-10-07T11:12:54.808Z,102353.13
2022-10-07T11:15:33.712Z,102349.38
2022-10-07T11:18:06.867Z,102344.22
2022-10-07T11:20:44.901Z,102338.16
2022-10-07T11:23:17.837Z,102349.00
2022-10-07T11:25:51.712Z,102335.19
2022-10-07T11:28:26.123Z,102329.34
2022-10-07T11:31:11.392Z,102320.94
2022-10-07T11:33:50.076Z,102316.72
2022-10-07T11:36:37.402Z,102312.25
2022-10-07T11:39:04.458Z,102303.94
2022-10-07T11:41:45.425Z,102296.31
2022-10-07T11:44:23.862Z,102293.66
2022-10-07T11:46:53.059Z,102282.41
2022-10-07T11:49:27.786Z,102290.03
2022-10-07T11:51:54.724Z,102288.47
2022-10-07T11:54:27.555Z,102273.50
2022-10-07T11:56:58.626Z,102267.06
2022-10-07T11:59:48.997Z,102266.56
2022-10-07T12:02:30.957Z,102257.44
2022-10-07T12:05:02.380Z,102257.50
2022-10-07T12:07:56.395Z,102253.81
2022-10-07T12:10:29.044Z,102244.47
2022-10-07T12:12:59.649Z,102235.03
2022-10-07T12:15:40.558Z,102243.19
2022-10-07T12:18:17.565Z,102230.25
2022-10-07T12:20:50.279Z,102230.69
2022-10-07T12:23:17.278Z,102216.72
2022-10-07T12:26:23.125Z,102222.75
2022-10-07T12:28:51.819Z,102211.88
2022-10-07T12:31:19.430Z,102207.59
2022-10-07T12:33:46.484Z,102210.34
2022-10-07T12:36:20.254Z,102198.22
2022-10-07T12:38:59.431Z,102189.44
2022-10-07T12:41:33.635Z,102177.31
2022-10-07T12:44:52.780Z,102177.78
2022-10-07T12:47:31.077Z,102181.50
2022-10-07T12:50:07.740Z,102184.75
2022-10-07T12:52:45.106Z,102183.28
2022-10-07T12:55:19.751Z,102172.97
2022-10-07T12:58:15.908Z,102172.31
2022-10-07T13:01:26.424Z,102174.13
2022-10-07T13:04:18.852Z,102173.34
2022-10-07T13:07:23.956Z,102162.38
2022-10-07T13:10:21.495Z,102165.50
2022-10-07T13:12:55.050Z,102154.63
2022-10-07T13:15:41.657Z,102152.34
2022-10-07T13:18:17.898Z,102158.91
2022-10-07T13:21:12.366Z,102149.63
2022-10-07T13:23:39.327Z,102142.31
2022-10-07T13:26:07.733Z,102132.41
2022-10-07T13:28:45.666Z,102130.81
2022-10-07T13:31:35.935Z,102128.50
2022-10-07T13:34:16.557Z,102129.78
2022-10-07T13:36:43.867Z,102123.56
2022-10-07T13:39:20.866Z,102114.34
2022-10-07T13:41:50.765Z,102114.78
2022-10-07T13:44:20.725Z,102110.97
2022-10-07T13:46:57.501Z,102110.63
2022-10-07T13:49:49.578Z,102120.59
2022-10-07T13:52:34.145Z,102119.13
2022-10-07T13:55:01.607Z,102105.25
2022-10-07T13:57:31.406Z,102104.97
2022-10-07T14:00:00.035Z,102094.53
2022-10-07T14:02:27.943Z,102095.00
2022-10-07T14:05:05.069Z,102087.66
2022-10-07T14:07:31.991Z,102080.19
2022-10-07T14:09:58.837Z,102075.19
2022-10-07T14:12:32.805Z,102076.91
2022-10-07T14:15:06.561Z,102078.06
2022-10-07T14:17:39.544Z,102070.22
2022-10-07T14:20:25.692Z,102063.25
2022-10-07T14:22:58.850Z,102065.72
2022-10-07T14:25:29.085Z,102066.31
2022-10-07T14:28:08.185Z,102063.19
2022-10-07T14:30:57.116Z,102068.13
2022-10-07T14:33:48.578Z,102058.72
2022-10-07T14:36:18.349Z,102052.47
2022-10-07T14:38:47.657Z,102044.09
2022-10-07T14:41:17.406Z,102047.81
2022-10-07T14:43:47.723Z,102040.66
2022-10-07T14:46:23.703Z,102039.28
2022-10-07T14:48:52.472Z,102030.59
2022-10-07T14:51:28.914Z,102041.56
2022-10-07T14:54:07.655Z,102032.97
2022-10-07T14:56:36.819Z,102034.91
2022-10-07T14:59:04.093Z,102026.31
2022-10-07T15:01:31.216Z,102037.00
2022-10-07T15:03:58.760Z,102028.59
2022-10-07T15:06:26.030Z,102034.78
2022-10-07T15:08:52.989Z,102028.53
2022-10-07T15:11:21.418Z,102022.47
2022-10-07T15:13:50.075Z,102013.69
2022-10-07T15:16:26.736Z,102006.72
2022-10-07T15:18:53.923Z,102001.44
2022-10-07T15:21:22.395Z,102000.53
2022-10-07T15:23:55.962Z,101989.78
2022-10-07T15:26:24.844Z,101992.25
2022-10-07T15:28:54.474Z,101983.19
2022-10-07T15:31:26.185Z,101992.28
2022-10-07T15:33:57.305Z,101989.56
2022-10-07T15:36:25.627Z,101992.91
2022-10-07T15:38:52.860Z,101987.16
2022-10-07T15:41:36.136Z,101984.78
2022-10-07T15:44:12.177Z,101985.88
2022-10-07T15:46:39.223Z,101991.25
2022-10-07T15:49:07.557Z,101980.34
2022-10-07T15:51:36.440Z,101971.16
2022-10-07T15:54:04.753Z,101979.16
2022-10-07T15:56:31.808Z,101976.44
2022-10-07T15:59:00.574Z,101977.03
2022-10-07T16:01:28.881Z,101976.06
2022-10-07T16:03:56.101Z,101976.13
2022-10-07T16:06:25.559Z,101964.13
2022-10-07T16:08:55.413Z,101971.06
2022-10-07T16:11:22.610Z,101963.25
2022-10-07T16:13:49.756Z,101961.94
2022-10-07T16:16:25.512Z,101959.63
2022-10-07T16:18:55.160Z,101958.66
2022-10-07T16:21:43.420Z,101952.09
2022-10-07T16:24:18.246Z,101948.78
2022-10-07T16:26:46.665Z,101945.94
2022-10-07T16:29:34.686Z,101950.03
2022-10-07T16:32:02.539Z,101941.72
2022-10-07T16:34:29.736Z,101941.63
2022-10-07T16:36:57.514Z,101942.00
2022-10-07T16:39:24.798Z,101937.09
2022-10-07T16:41:52.676Z,101933.78
2022-10-07T16:44:20.738Z,101929.69
2022-10-07T16:46:48.666Z,101928.47
2022-10-07T16:49:17.927Z,101926.50
2022-10-07T16:51:46.080Z,101931.63
2022-10-07T16:54:16.228Z,101930.13
2022-10-07T16:56:47.169Z,101929.91
2022-10-07T16:59:22.056Z,101922.88
2022-10-07T17:01:51.948Z,101936.13
2022-10-07T17:04:19.155Z,101926.41
2022-10-07T17:06:46.381Z,101934.66
2022-10-07T17:09:13.957Z,101934.53
2022-10-07T17:11:41.298Z,101936.72
2022-10-07T17:14:20.101Z,101928.63
2022-10-07T17:17:05.474Z,101930.06
2022-10-07T17:19:33.691Z,101923.56
2022-10-07T17:22:01.005Z,101923.63
2022-10-07T17:24:27.771Z,101920.00
2022-10-07T17:26:55.261Z,101923.47
2022-10-07T17:29:25.132Z,101920.41
2022-10-07T17:31:52.311Z,101921.25
2022-10-07T17:34:20.798Z,101918.97
2022-10-07T17:36:48.233Z,101930.28
2022-10-07T17:39:15.465Z,101932.41
2022-10-07T17:41:42.315Z,101925.38
2022-10-07T17:44:11.950Z,101929.63
2022-10-07T17:46:40.264Z,101927.03
2022-10-07T17:49:10.278Z,101923.72
2022-10-07T17:51:37.734Z,101921.13
2022-10-07T17:54:06.211Z,101922.47
2022-10-07T17:56:34.913Z,101920.69
2022-10-07T17:59:02.506Z,101925.69
2022-10-07T18:01:34.248Z,101924.69
2022-10-07T18:04:03.913Z,101927.06
2022-10-07T18:06:33.845Z,101925.50
2022-10-07T18:09:04.603Z,101919.72
2022-10-07T18:11:50.308Z,101920.81
2022-10-07T18:14:35.857Z,101919.81
2022-10-07T18:17:03.717Z,101914.84
2022-10-07T18:19:30.582Z,101915.13
2022-10-07T18:21:57.937Z,101917.47
2022-10-07T18:24:28.247Z,101919.03
2022-10-07T18:26:58.799Z,101915.38
2022-10-07T18:29:29.758Z,101916.91
2022-10-07T18:31:56.757Z,101922.66
2022-10-07T18:34:24.354Z,101918.50
2022-10-07T18:36:55.971Z,101917.19
2022-10-07T18:39:23.713Z,101912.44
2022-10-07T18:41:50.915Z,101909.31
2022-10-07T18:44:17.719Z,101903.56
2022-10-07T18:46:44.574Z,101904.91
2022-10-07T18:49:13.955Z,101899.13
2022-10-07T18:51:41.746Z,101899.13
2022-10-07T18:54:09.913Z,101899.13
2022-10-07T18:56:40.884Z,101902.53
2022-10-07T18:59:09.859Z,101897.56
2022-10-07T19:01:37.851Z,101891.03
2022-10-07T19:04:06.337Z,101888.97
2022-10-07T19:06:36.625Z,101884.25
2022-10-07T19:09:08.977Z,101887.44
2022-10-07T19:11:36.029Z,101885.63
2022-10-07T19:14:03.395Z,101888.81
2022-10-07T19:16:34.672Z,101899.06
2022-10-07T19:19:04.459Z,101892.81
2022-10-07T19:21:32.317Z,101883.41
2022-10-07T19:24:01.767Z,101889.69
2022-10-07T19:26:31.515Z,101877.69
2022-10-07T19:28:58.446Z,101877.19
2022-10-07T19:31:29.129Z,101873.28
2022-10-07T19:34:01.538Z,101875.38
2022-10-07T19:36:34.268Z,101879.34
2022-10-07T19:39:01.838Z,101873.84
2022-10-07T19:41:30.850Z,101873.63
2022-10-07T19:43:58.822Z,101869.97
2022-10-07T19:46:27.714Z,101865.56
2022-10-07T19:48:57.046Z,101870.78
2022-10-07T19:51:26.291Z,101869.50
2022-10-07T19:53:53.526Z,101862.72
2022-10-07T19:56:25.660Z,101862.19
2022-10-07T19:58:55.621Z,101862.75
2022-10-07T20:01:25.022Z,101859.34
2022-10-07T20:04:10.391Z,101863.00
2022-10-07T20:06:37.652Z,101860.66
2022-10-07T20:09:10.559Z,101853.63
2022-10-07T20:11:37.444Z,101854.94
2022-10-07T20:14:06.094Z,101855.47
2022-10-07T20:16:34.391Z,101842.94
2022-10-07T20:19:05.957Z,101842.41
2022-10-07T20:21:35.801Z,101841.41
2022-10-07T20:24:03.818Z,101845.06
2022-10-07T20:26:33.558Z,101839.56
2022-10-07T20:29:02.181Z,101845.06
2022-10-07T20:31:33.046Z,101841.16
2022-10-07T20:34:01.717Z,101832.25
2022-10-07T20:36:34.492Z,101837.75
2022-10-07T20:39:25.259Z,101839.88
2022-10-07T20:42:12.147Z,101834.91
2022-10-07T20:44:39.815Z,101827.06
2022-10-07T20:47:09.015Z,101822.06
2022-10-07T20:49:38.641Z,101821.56
2022-10-07T20:52:11.224Z,101824.44
2022-10-07T20:54:38.091Z,101824.19
2022-10-07T20:57:06.201Z,101824.19
2022-10-07T20:59:33.056Z,101820.03
2022-10-07T21:02:03.919Z,101819.50
2022-10-07T21:04:33.782Z,101819.75
2022-10-07T21:07:01.740Z,101814.28
2022-10-07T21:09:28.805Z,101810.63
2022-10-07T21:11:57.926Z,101810.13
2022-10-07T21:14:24.898Z,101814.31
2022-10-07T21:16:53.517Z,101805.94
2022-10-07T21:19:20.459Z,101808.06
2022-10-07T21:21:47.299Z,101806.47
2022-10-07T21:24:14.720Z,101802.28
2022-10-07T21:26:41.710Z,101809.09
2022-10-07T21:29:11.181Z,101815.91
2022-10-07T21:31:38.058Z,101807.53
2022-10-07T21:34:08.112Z,101800.72
2022-10-07T21:36:38.607Z,101798.63
2022-10-07T21:39:06.107Z,101789.97
2022-10-07T21:41:34.602Z,101791.81
2022-10-07T21:44:04.049Z,101786.31
2022-10-07T21:46:32.553Z,101796.00
2022-10-07T21:48:59.941Z,101796.00
2022-10-07T21:51:27.435Z,101793.38
2022-10-07T21:53:58.228Z,101785.25
2022-10-07T21:56:27.059Z,101784.75
2022-10-07T21:58:54.061Z,101773.47
2022-10-07T22:01:22.948Z,101778.69
2022-10-07T22:04:01.589Z,101774.25
2022-10-07T22:06:48.925Z,101775.56
2022-10-07T22:09:18.453Z,101768.22
2022-10-07T22:11:45.230Z,101758.75
2022-10-07T22:14:12.997Z,101764.50
2022-10-07T22:16:40.629Z,101765.81
2022-10-07T22:19:08.215Z,101760.31
2022-10-07T22:21:39.268Z,101761.31
2022-10-07T22:24:07.704Z,101762.91
2022-10-07T22:26:44.462Z,101758.22
2022-10-07T22:29:12.779Z,101755.59
2022-10-07T22:31:39.654Z,101749.03
2022-10-07T22:34:07.111Z,101749.25
2022-10-07T22:36:34.255Z,101749.25
2022-10-07T22:39:01.578Z,101742.69
2022-10-07T22:41:29.299Z,101739.81
2022-10-07T22:43:56.113Z,101736.13
2022-10-07T22:46:26.983Z,101730.88
2022-10-07T22:48:58.084Z,101735.59
2022-10-07T22:51:28.653Z,101729.28
2022-10-07T22:53:56.839Z,101735.03
2022-10-07T22:56:27.694Z,101733.72
2022-10-07T22:58:58.936Z,101735.00
2022-10-07T23:01:31.397Z,101727.16
2022-10-07T23:04:00.991Z,101734.75
2022-10-07T23:06:27.985Z,101732.91
2022-10-07T23:08:55.282Z,101727.38
2022-10-07T23:11:24.316Z,101726.31
2022-10-07T23:13:52.035Z,101731.56
2022-10-07T23:16:21.303Z,101726.03
2022-10-07T23:18:49.820Z,101730.22
2022-10-07T23:21:19.202Z,101725.47
2022-10-07T23:23:49.540Z,101717.63
2022-10-07T23:26:21.507Z,101724.94
2022-10-07T23:28:49.689Z,101723.88
2022-10-07T23:31:18.797Z,101732.25
2022-10-07T23:33:47.719Z,101732.75
2022-10-07T23:36:16.485Z,101732.22
2022-10-07T23:38:46.990Z,101730.88
2022-10-07T23:41:16.439Z,101736.38
2022-10-07T23:43:43.273Z,101736.38
2022-10-07T23:46:13.567Z,101734.25
2022-10-07T23:48:41.716Z,101739.50
2022-10-07T23:51:11.717Z,101739.22
2022-10-07T23:53:39.208Z,101746.00
2022-10-07T23:56:06.672Z,101751.00
2022-10-07T23:58:34.496Z,101744.19
